Ellington, NY

8:32 PM EST on February 26, 2015 (GMT -0500)
Chautauqua County-Dunkirk | Change Station
CLOSE
Current Station
Airport
Location: Dunkirk,
Elevation: 692 ft
Nearby Weather Stations

Elev 692 ft 42.49 °N, 79.28 °W | Updated 11 minutes ago

Snow
Snow
11 °F
Feels Like -3 °F
N
10
Wind Variable Wind from North

Today
High -- | Low -- °F
--% Chance of Precip.
Yesterday
High -- | Low -- °F
Precip. -- in
6:56 AM 6:02 PM
Waxing Gibbous, 64% visible
Pressure 30.20 in
Visibility 6.0 miles
Clouds Overcast 3000 ft
Windchill -3 °F
Dew Point 8 °F
Humidity 88%
Rainfall 0.00 in
Snow Depth Not available.
UV 0 out of 12
Pollen .40 out of 12
Air Quality Not available.
Flu Activity Not available.
SPECI KDKK 270121Z AUTO 01009KT 6SM BR OVC030 M12/M13 A3020 RMK AO2 SNE09 P0000 T11171133

More Conditions Fewer Conditions

Pressure 30.20 in
Visibility 6.0 miles
Clouds Overcast 3000 ft
Windchill -3 °F
Dew Point 8 °F
Humidity 88%
Rainfall 0.00 in
Snow Depth Not available.
UV 0 out of 12
Pollen .40 out of 12
Air Quality Not available.
Flu Activity Not available.
SPECI KDKK 270121Z AUTO 01009KT 6SM BR OVC030 M12/M13 A3020 RMK AO2 SNE09 P0000 T11171133

More Conditions Fewer Conditions

10-Day Weather Forecast

Almanac

Astronomy

Feb. 26, 2015 Rise Set
Actual Time
Civil Twilight
Nautical Twilight
Astronomical Twilight
Moon
Length of Visible Light
Length of Day
Tomorrow will be .
, % of the Moon is Illuminated

Today's Extremes

State Highs State Lows

Community

WunderPhotos

Upload Photos

1,800,553 photos uploaded!

WunderBlogs® & News

Nearby

Air Quality

  Air Quality AQ Index Pollutant
Not available.

Snow Depth

Station Depth Elevation

Earthquake Activity

City Distance Mag. Time & Date
Minimum magnitude displayed is 2.5.

Coastal Water Temperatures

Place Temperature

Nearby Weather Stations